Search for airport 
image banner adimage banner adimage banner ad
image banner ad

5CL5 - Kcin Emergency

Located in Irvine, United States

ICAO - 5CL5, IATA -

Data provided by Airmate  

General information

Coordinates: N33°41'9" W117°51'16"
Elevation is 165 feet MSL.
Magnetic variation is 14° East
View others Airports in California

Operational data

Special qualification required
Current time UTC:
Current local time:
METAR: KSNA 221307Z 25004KT 10SM SCT013 19/14 A2992 RMK AO2 T01890139
TAF: KSNA 221137Z 2212/2312 VRB04KT P6SM BKN012 TEMPO 2212/2215 FEW013 FM221600 VRB05KT P6SM SCT012 BKN150 FM222000 24009KT P6SM BKN200 FM230300 20005KT P6SM SCT018 FM230800 VRB04KT P6SM BKN012
View NOTAMs / SUP AIP / TFR affecting this airport [VIEW]
Communications frequencies: [VIEW]

Runways:

Airport contact information

Address: Irvine United States

Satellite view of 5CL5